Time;durP1;ratioP1;P1;durP2;ratioP2;P2;SDS_P1;SDS_P2;PMS_P1;PMS_P2;Temp;Humidity;BMP_temperature;BMP_pressure;BME280_temperature;BME280_humidity;BME280_pressure;Samples;Min_cycle;Max_cycle;Signal;HPM_P1;HPM_P2
2021/07/15 00:01:40;;;;;;;4.68;2.83;;;20.00;79.10;;;23.15;64.24;100979.94;5039768;27;96854;-73
2021/07/15 00:04:12;;;;;;;2.08;1.80;;;20.00;79.10;;;23.18;64.33;100973.69;5020697;27;96921;-73
2021/07/15 00:06:42;;;;;;;6.18;1.88;;;20.00;79.10;;;23.20;64.37;100974.88;5026190;27;97112;-73
2021/07/15 00:09:15;;;;;;;0.85;0.85;;;20.00;79.40;;;23.25;64.67;100985.44;5037001;27;96856;-73
2021/07/15 00:11:48;;;;;;;2.03;1.10;;;20.00;79.90;;;23.22;64.91;100988.19;5036800;27;97844;-73
2021/07/15 00:14:21;;;;;;;4.05;3.25;;;20.00;80.30;;;23.25;65.02;100998.34;5035287;27;96855;-72
2021/07/15 00:16:51;;;;;;;6.45;2.75;;;20.00;80.50;;;23.27;65.32;101004.22;5038927;27;97008;-72
2021/07/15 00:19:20;;;;;;;5.03;2.50;;;20.00;80.80;;;23.28;65.28;101003.84;5037853;27;96734;-72
2021/07/15 00:21:49;;;;;;;16.58;4.35;;;20.00;81.00;;;23.30;65.31;101000.72;5038107;27;96806;-72
2021/07/15 00:24:20;;;;;;;0.98;0.95;;;20.00;81.20;;;23.24;65.88;100997.56;5035467;27;96794;-72
2021/07/15 00:26:49;;;;;;;6.75;1.95;;;20.00;81.60;;;23.27;65.82;101005.03;5039345;27;96794;-72
2021/07/15 00:29:18;;;;;;;2.38;2.17;;;20.00;81.80;;;23.19;65.86;101000.66;5039223;27;97887;-72
2021/07/15 00:31:47;;;;;;;1.45;1.23;;;20.00;81.90;;;23.29;65.85;100999.97;5031120;27;97131;-72
2021/07/15 00:34:16;;;;;;;2.45;2.13;;;20.00;82.00;;;23.27;65.86;101009.69;5041729;27;96980;-72
2021/07/15 00:36:45;;;;;;;5.90;2.63;;;20.00;82.10;;;23.35;65.64;101008.56;5040461;27;97144;-72
2021/07/15 00:39:14;;;;;;;2.97;2.72;;;20.00;82.10;;;23.28;66.00;101003.84;5039888;27;96905;-72
2021/07/15 00:41:44;;;;;;;5.57;2.55;;;20.00;82.10;;;23.22;66.40;101013.56;5023701;28;97701;-72
2021/07/15 00:44:12;;;;;;;4.55;1.88;;;20.00;82.10;;;23.10;66.72;101011.13;5033829;27;96779;-72
2021/07/15 00:46:41;;;;;;;2.08;1.83;;;20.00;82.10;;;23.09;66.80;101006.00;5040585;27;97467;-72
2021/07/15 00:49:10;;;;;;;3.25;1.40;;;20.00;82.00;;;23.14;66.52;100997.50;5035519;27;97911;-72
2021/07/15 00:51:39;;;;;;;1.95;1.85;;;20.00;82.10;;;23.12;66.43;101003.34;5017729;27;97530;-72
2021/07/15 00:54:08;;;;;;;4.43;1.98;;;20.00;82.10;;;23.01;67.14;101004.38;5042358;27;96793;-72
2021/07/15 00:56:36;;;;;;;2.38;2.17;;;20.00;82.10;;;23.00;67.09;100986.41;5037542;27;97178;-73
2021/07/15 00:59:07;;;;;;;2.72;2.50;;;20.00;82.10;;;23.05;66.95;100988.78;5040585;27;97819;-73
2021/07/15 01:01:38;;;;;;;6.07;2.33;;;20.00;82.10;;;23.12;66.80;100988.88;5053089;27;97218;-72
2021/07/15 01:04:09;;;;;;;2.70;2.07;;;20.00;82.10;;;23.15;66.70;100985.41;5050043;27;96799;-73
2021/07/15 01:06:38;;;;;;;3.38;2.35;;;20.00;82.10;;;23.18;66.70;100987.38;5039363;27;96775;-72
2021/07/15 01:09:06;;;;;;;4.97;2.33;;;20.00;82.10;;;23.31;66.19;100988.63;5030079;27;96856;-73
2021/07/15 01:11:47;;;;;;;14.02;3.85;;;20.00;82.10;;;23.26;66.61;100988.97;5055935;27;97752;-73
2021/07/15 01:14:34;;;;;;;2.10;2.00;;;20.00;82.10;;;23.29;66.40;100993.69;5043085;27;96784;-73
2021/07/15 01:17:11;;;;;;;22.45;4.32;;;20.00;82.20;;;23.30;66.44;100998.00;5040961;27;97278;-73
2021/07/15 01:20:19;;;;;;;7.40;3.70;;;20.00;82.20;;;23.31;66.18;100999.56;5043481;27;97468;-73
2021/07/15 01:23:12;;;;;;;3.88;2.78;;;20.00;82.20;;;23.31;66.51;100996.81;5040485;27;100420;-73
2021/07/15 01:26:10;;;;;;;6.30;4.13;;;20.00;82.20;;;23.34;66.61;101012.47;5040293;27;96794;-73
2021/07/15 01:29:16;;;;;;;6.55;2.60;;;20.00;82.30;;;23.35;66.33;101019.50;5045353;27;97361;-73
2021/07/15 01:31:52;;;;;;;2.85;1.65;;;20.00;82.30;;;23.40;66.00;101016.41;5042303;27;97060;-73
2021/07/15 01:34:24;;;;;;;3.47;2.33;;;20.00;82.20;;;23.37;66.14;101012.50;5037938;27;97711;-73
2021/07/15 01:36:57;;;;;;;11.52;4.65;;;20.00;82.20;;;23.45;65.71;101018.81;5037479;27;97453;-73
2021/07/15 01:39:32;;;;;;;5.57;3.33;;;20.00;82.20;;;23.48;66.05;101015.31;5043374;27;97024;-73
2021/07/15 01:42:08;;;;;;;5.97;2.00;;;20.00;82.20;;;23.37;66.21;101017.97;5043359;27;97895;-73
2021/07/15 01:44:39;;;;;;;3.75;2.90;;;20.00;82.20;;;23.41;66.20;101010.56;5038703;27;96775;-73
2021/07/15 01:47:10;;;;;;;6.80;2.95;;;20.00;82.30;;;23.37;66.24;101011.72;5043081;27;97385;-73
2021/07/15 01:49:41;;;;;;;5.90;2.03;;;20.00;82.30;;;23.35;66.31;101008.56;5043219;27;99549;-73
2021/07/15 01:52:11;;;;;;;9.40;3.05;;;20.00;82.20;;;23.34;66.50;101018.75;5042799;27;96834;-73
2021/07/15 01:54:40;;;;;;;3.90;1.90;;;20.00;82.30;;;23.28;66.56;101016.72;5045910;27;97224;-73
2021/07/15 01:57:10;;;;;;;2.17;1.98;;;20.00;82.30;;;23.30;66.68;101008.94;5041120;27;96959;-73
2021/07/15 01:59:42;;;;;;;9.75;3.00;;;20.00;82.30;;;23.38;66.35;101013.28;5040796;27;97442;-73
2021/07/15 02:02:14;;;;;;;3.70;2.35;;;20.00;82.30;;;23.38;65.91;101010.53;5047895;27;98054;-73
2021/07/15 02:04:46;;;;;;;6.88;2.63;;;20.00;82.30;;;23.45;66.39;101013.34;5039810;27;96926;-73
2021/07/15 02:07:17;;;;;;;4.55;2.65;;;20.00;82.30;;;23.51;65.88;101014.56;5051509;27;96748;-73
2021/07/15 02:09:47;;;;;;;1.75;1.65;;;20.00;82.40;;;23.41;66.20;101012.50;5044060;27;96987;-73
2021/07/15 02:12:17;;;;;;;2.80;2.58;;;20.00;82.40;;;23.40;66.30;101008.22;5045227;27;98020;-73
2021/07/15 02:14:49;;;;;;;11.65;3.47;;;20.00;82.40;;;23.44;66.25;101006.31;5048416;27;98646;-73
2021/07/15 02:17:21;;;;;;;4.72;2.95;;;20.00;82.40;;;23.45;66.26;101003.19;5044263;27;96860;-73
2021/07/15 02:19:52;;;;;;;6.00;4.25;;;20.00;82.40;;;23.44;66.45;101006.31;5030665;27;96977;-73
2021/07/15 02:22:22;;;;;;;7.28;2.97;;;20.00;82.50;;;23.32;66.79;101017.53;5042754;27;97840;-73
2021/07/15 02:24:53;;;;;;;8.00;3.47;;;20.00;82.40;;;23.35;66.50;101019.50;5042602;27;97870;-73
2021/07/15 02:27:22;;;;;;;5.10;3.10;;;20.00;82.50;;;23.32;66.41;101010.13;5041467;27;96884;-73
2021/07/15 02:29:51;;;;;;;3.60;2.15;;;20.00;82.50;;;23.36;66.48;101010.13;5046153;27;97221;-73
2021/07/15 02:32:49;;;;;;;1.67;1.58;;;20.00;82.50;;;23.32;66.58;101012.06;5038597;27;98318;-73
2021/07/15 02:35:21;;;;;;;1.85;1.60;;;20.00;82.50;;;23.25;66.94;101003.81;5038632;27;97703;-73
2021/07/15 02:37:57;;;;;;;3.90;3.08;;;20.00;82.50;;;23.23;67.16;101011.63;5027922;27;97871;-73
2021/07/15 02:40:28;;;;;;;2.88;1.40;;;20.00;82.50;;;23.18;67.08;101004.53;5038720;27;96929;-73
2021/07/15 02:42:58;;;;;;;4.50;2.90;;;20.00;82.60;;;23.14;67.40;101002.97;5038537;27;96799;-73
2021/07/15 02:45:27;;;;;;;6.00;2.40;;;20.00;82.60;;;23.15;67.07;101005.31;5040392;27;96991;-73
2021/07/15 02:47:58;;;;;;;3.08;2.00;;;20.00;82.60;;;23.14;67.34;100997.50;5045816;27;96835;-73
2021/07/15 02:50:29;;;;;;;6.40;2.00;;;20.00;82.60;;;23.09;67.42;101001.31;5040670;27;97278;-74
2021/07/15 02:53:03;;;;;;;1.70;1.60;;;19.90;82.60;;;23.14;67.45;101002.97;5036376;27;96821;-74
2021/07/15 02:55:33;;;;;;;2.53;1.70;;;20.00;82.70;;;23.13;67.24;100998.66;5035142;27;98104;-74
2021/07/15 02:58:13;;;;;;;5.28;2.92;;;20.00;82.70;;;23.08;67.48;101004.44;5042011;27;96781;-74
2021/07/15 03:00:54;;;;;;;2.13;1.75;;;20.00;82.70;;;23.10;67.30;101002.09;5038206;27;96941;-74
2021/07/15 03:03:48;;;;;;;1.20;1.10;;;19.90;82.70;;;23.00;67.80;101005.53;5038803;27;97992;-74
2021/07/15 03:06:28;;;;;;;3.08;1.77;;;19.90;82.70;;;22.95;67.57;101005.88;5041695;27;100509;-74
2021/07/15 03:09:05;;;;;;;2.13;1.52;;;19.90;82.70;;;22.88;68.39;101005.84;5036692;27;96861;-75
2021/07/15 03:11:42;;;;;;;1.00;0.70;;;19.90;82.70;;;22.82;68.44;101004.63;5039461;27;97165;-74
2021/07/15 03:14:11;;;;;;;1.52;1.42;;;19.90;82.70;;;22.86;67.99;101002.69;5035968;27;97822;-74
2021/07/15 03:16:44;;;;;;;1.52;1.42;;;19.90;82.70;;;22.78;67.96;101007.31;5040005;27;99735;-74
2021/07/15 03:19:17;;;;;;;1.50;1.40;;;19.90;82.80;;;22.74;68.57;101011.16;5044014;27;97074;-74
2021/07/15 03:21:48;;;;;;;3.30;1.52;;;19.90;82.80;;;22.64;68.64;101012.63;5043388;27;97434;-74
2021/07/15 03:24:22;;;;;;;1.02;1.00;;;19.90;82.80;;;22.71;68.60;101015.44;5038817;27;98277;-74
2021/07/15 03:26:53;;;;;;;2.33;1.30;;;19.90;82.80;;;22.84;67.99;101015.94;5022888;27;97336;-74
2021/07/15 03:29:23;;;;;;;0.43;0.35;;;19.90;82.80;;;22.94;67.82;101007.81;5039470;27;96725;-73
2021/07/15 03:31:55;;;;;;;3.78;0.57;;;19.90;82.80;;;23.01;67.24;101007.91;5027168;27;97150;-72
2021/07/15 03:34:30;;;;;;;1.33;0.85;;;19.90;82.80;;;22.97;67.65;101012.56;5042638;27;96856;-72
2021/07/15 03:37:00;;;;;;;3.10;1.02;;;19.80;82.80;;;22.94;67.71;101010.56;5035205;27;97908;-72
2021/07/15 03:39:33;;;;;;;;;;;19.80;83.40;;;22.88;67.42;101005.84;5055738;27;97182;-72
2021/07/15 03:42:06;;;;;;;2.85;1.23;;;19.80;82.90;;;22.93;67.39;101013.69;5039029;27;96889;-72
2021/07/15 03:44:38;;;;;;;3.65;0.98;;;19.80;82.80;;;22.90;67.64;101014.44;5035845;27;98288;-72
2021/07/15 03:47:08;;;;;;;1.80;0.93;;;19.80;82.80;;;22.93;67.57;101010.94;5037590;27;98144;-72
2021/07/15 03:49:41;;;;;;;0.55;0.55;;;19.80;82.80;;;22.91;67.52;101014.03;5037400;27;97953;-72
2021/07/15 03:52:12;;;;;;;;;;;19.80;82.90;;;22.92;67.56;101014.84;5041760;27;96892;-72
2021/07/15 03:54:42;;;;;;;1.75;1.65;;;19.80;82.90;;;22.90;67.39;101020.69;5039406;27;96919;-72
2021/07/15 03:57:13;;;;;;;1.33;1.23;;;19.80;82.90;;;22.86;67.78;101022.59;5022129;27;96802;-72
2021/07/15 03:59:47;;;;;;;5.40;0.95;;;19.80;82.90;;;22.83;67.86;101019.84;5036952;27;97327;-72
2021/07/15 04:02:22;;;;;;;4.60;1.77;;;19.80;83.10;;;22.83;68.23;101025.31;5036884;27;97239;-72
2021/07/15 04:04:57;;;;;;;2.50;1.83;;;19.80;83.50;;;22.83;68.37;101037.00;5033205;27;97657;-72
2021/07/15 04:07:30;;;;;;;3.45;1.75;;;19.80;83.90;;;22.81;68.78;101044.81;5039038;27;97565;-72
2021/07/15 04:09:59;;;;;;;2.22;1.25;;;19.70;84.30;;;22.78;68.96;101052.97;5042216;27;96745;-73
2021/07/15 04:12:34;;;;;;;4.07;2.67;;;19.70;84.60;;;22.79;69.34;101068.19;5039074;27;97863;-73
2021/07/15 04:15:14;;;;;;;3.50;2.05;;;19.70;84.90;;;22.73;70.19;101058.75;5036381;27;97916;-73
2021/07/15 04:17:49;;;;;;;3.33;2.47;;;19.70;85.20;;;22.77;70.61;101062.31;5043144;27;98029;-74
2021/07/15 04:20:24;;;;;;;1.95;1.80;;;19.70;85.20;;;22.80;71.01;101067.81;5025164;27;96714;-75
2021/07/15 04:22:59;;;;;;;0.57;0.57;;;19.70;85.40;;;22.84;71.02;101070.59;5044126;27;97293;-74
2021/07/15 04:25:32;;;;;;;2.65;1.77;;;19.70;85.60;;;22.87;70.62;101069.84;5057797;27;98153;-74
2021/07/15 04:28:04;;;;;;;3.63;2.35;;;19.70;85.80;;;22.89;71.36;101067.53;5044111;27;97708;-74
2021/07/15 04:30:34;;;;;;;3.20;1.20;;;19.70;86.00;;;22.93;71.09;101077.31;5040071;27;96916;-74
2021/07/15 04:33:07;;;;;;;12.68;3.70;;;19.70;86.20;;;22.86;71.77;101068.28;5038763;27;96830;-74
2021/07/15 04:35:39;;;;;;;32.45;3.92;;;19.70;86.40;;;22.91;72.12;101073.41;5039849;27;98043;-75
2021/07/15 04:38:09;;;;;;;1.45;1.13;;;19.80;86.50;;;22.99;71.66;101064.09;5040977;27;96982;-75
2021/07/15 04:40:39;;;;;;;7.03;2.97;;;19.70;86.60;;;22.98;71.42;101065.25;5042098;27;96882;-75
2021/07/15 04:43:10;;;;;;;12.27;2.75;;;19.80;86.70;;;22.99;71.88;101066.84;5045747;27;96836;-75
2021/07/15 04:45:44;;;;;;;2.42;1.42;;;19.70;86.80;;;22.98;71.71;101070.72;5039965;27;97811;-75
2021/07/15 04:48:17;;;;;;;2.45;2.25;;;19.80;86.90;;;23.05;71.81;101070.78;5043310;27;96756;-74
2021/07/15 04:50:51;;;;;;;3.70;2.40;;;19.70;86.80;;;23.05;71.73;101073.53;5043284;27;97484;-73
2021/07/15 04:53:25;;;;;;;4.60;2.17;;;19.70;86.90;;;23.02;71.67;101074.28;5044467;27;97034;-73
2021/07/15 04:55:55;;;;;;;4.53;2.63;;;19.80;86.90;;;23.01;71.36;101075.44;5043375;27;98371;-73
2021/07/15 04:58:25;;;;;;;12.07;2.60;;;19.80;86.90;;;23.04;71.09;101089.16;5042302;27;97282;-73
2021/07/15 05:00:53;;;;;;;2.72;1.55;;;19.80;86.90;;;23.00;71.24;101093.00;5040075;27;97132;-73
2021/07/15 05:03:32;;;;;;;3.20;1.77;;;19.80;87.00;;;23.00;71.77;101095.75;5041796;27;97168;-73
2021/07/15 05:06:07;;;;;;;10.65;3.58;;;19.80;87.30;;;23.10;71.69;101095.03;5034763;27;97330;-72
2021/07/15 05:08:39;;;;;;;8.98;3.83;;;19.80;87.40;;;23.22;71.59;101083.88;5042923;27;96835;-72
2021/07/15 05:11:26;;;;;;;2.47;2.17;;;19.80;87.50;;;23.19;71.67;101088.13;5044290;27;96885;-72
2021/07/15 05:14:13;;;;;;;3.63;1.98;;;19.80;87.70;;;23.30;71.69;101085.50;5041592;27;97135;-73
2021/07/15 05:17:01;;;;;;;1.73;1.13;;;19.80;87.80;;;23.27;71.67;101086.25;5047801;27;97247;-73
2021/07/15 05:19:51;;;;;;;4.03;2.22;;;19.90;88.00;;;23.18;72.18;101092.03;5041356;27;96998;-73
2021/07/15 05:22:22;;;;;;;0.25;0.25;;;19.90;88.10;;;23.17;72.52;101095.94;5024483;27;96816;-73
2021/07/15 05:24:50;;;;;;;1.45;1.30;;;19.90;88.30;;;23.13;72.59;101099.81;5059077;27;97507;-74
2021/07/15 05:27:19;;;;;;;7.88;2.85;;;19.90;88.50;;;23.14;73.12;101098.66;5046733;27;96646;-75
2021/07/15 05:29:48;;;;;;;2.47;0.65;;;19.90;88.70;;;23.07;73.64;101088.41;5048852;27;96917;-75
2021/07/15 05:32:17;;;;;;;5.82;1.67;;;19.90;88.80;;;23.05;74.23;101092.66;5044266;27;98974;-74
2021/07/15 05:34:46;;;;;;;1.45;1.35;;;19.90;89.00;;;23.07;74.43;101098.53;5044662;27;97061;-74
2021/07/15 05:37:15;;;;;;;40.83;2.53;;;19.90;89.20;;;23.07;74.38;101107.53;5041766;27;99395;-74
2021/07/15 05:39:44;;;;;;;1.58;1.45;;;19.90;89.50;;;23.15;74.80;101114.66;5043743;27;96695;-74
2021/07/15 05:42:14;;;;;;;0.90;0.88;;;19.90;89.70;;;23.18;74.43;101107.66;5041249;27;96952;-74
2021/07/15 05:44:43;;;;;;;8.68;3.35;;;19.90;89.90;;;23.16;74.74;101110.78;5045525;27;96767;-74
2021/07/15 05:47:12;;;;;;;2.40;1.50;;;19.90;90.10;;;23.16;74.90;101115.47;5043428;27;96997;-74
2021/07/15 05:49:41;;;;;;;7.88;1.27;;;19.90;90.10;;;23.14;74.87;101109.59;5039018;27;96832;-73
2021/07/15 05:52:11;;;;;;;2.42;1.42;;;19.90;90.20;;;23.12;75.42;101114.63;5038408;27;96807;-73
2021/07/15 05:54:41;;;;;;;3.45;2.17;;;19.90;90.30;;;23.16;75.33;101123.66;5043545;27;96689;-74
2021/07/15 05:57:11;;;;;;;1.70;1.60;;;19.90;90.40;;;23.23;75.60;101121.00;5044088;27;98505;-74
2021/07/15 05:59:40;;;;;;;1.00;0.57;;;19.90;90.40;;;23.20;75.48;101127.22;5039862;27;99612;-73
2021/07/15 06:02:10;;;;;;;1.20;1.10;;;19.90;90.40;;;23.18;75.87;101129.53;5040813;27;96931;-73
2021/07/15 06:04:39;;;;;;;1.42;0.95;;;19.90;90.50;;;23.12;75.82;101126.34;5041498;27;97088;-73
2021/07/15 06:07:07;;;;;;;4.45;0.73;;;19.90;90.60;;;23.08;76.14;101127.44;5042457;27;97846;-73
2021/07/15 06:09:36;;;;;;;3.60;1.17;;;19.90;90.60;;;23.09;76.20;101132.56;5043878;27;97737;-73
2021/07/15 06:12:06;;;;;;;0.10;0.10;;;19.90;90.70;;;23.14;76.19;101136.94;5026256;27;97446;-73
2021/07/15 06:14:37;;;;;;;1.08;1.08;;;19.90;90.70;;;23.14;76.09;101147.88;5037289;27;97236;-72
2021/07/15 06:17:07;;;;;;;6.38;1.20;;;19.90;90.80;;;23.09;76.37;101142.69;5040596;27;97861;-72
2021/07/15 06:19:35;;;;;;;0.90;0.90;;;19.90;90.90;;;23.04;76.36;101134.81;5036791;27;97412;-72
2021/07/15 06:22:06;;;;;;;1.65;1.15;;;19.90;91.00;;;23.09;76.72;101131.75;5038740;27;97535;-73
2021/07/15 06:24:34;;;;;;;0.85;0.85;;;19.90;91.00;;;23.25;76.00;101141.31;5038916;27;99170;-72
2021/07/15 06:27:05;;;;;;;0.20;0.20;;;19.90;91.00;;;23.34;75.97;101143.75;5041049;27;98651;-73
2021/07/15 06:29:35;;;;;;;0.88;0.80;;;19.90;90.90;;;23.29;75.95;101160.50;5043565;27;99995;-73
2021/07/15 06:32:07;;;;;;;3.53;1.90;;;19.90;90.90;;;23.29;76.37;101161.31;5030135;27;96929;-72
2021/07/15 06:34:37;;;;;;;2.65;1.92;;;19.90;91.00;;;23.30;75.97;101162.06;5041431;27;97935;-72
2021/07/15 06:37:09;;;;;;;4.28;1.88;;;19.90;91.10;;;23.34;75.81;101165.63;5038099;27;97908;-72
2021/07/15 06:39:39;;;;;;;7.28;2.45;;;19.90;91.20;;;23.34;76.03;101158.22;5043121;27;97800;-72
2021/07/15 06:42:08;;;;;;;0.52;0.32;;;20.00;91.20;;;23.34;76.05;101160.97;5039712;27;97329;-72
2021/07/15 06:44:38;;;;;;;3.55;1.45;;;19.90;91.20;;;23.18;76.97;101173.28;5042647;27;96774;-72
2021/07/15 06:47:07;;;;;;;2.50;1.48;;;20.00;91.20;;;23.14;77.11;101164.28;5040103;27;98086;-72
2021/07/15 06:49:36;;;;;;;2.03;1.67;;;20.00;91.30;;;23.21;76.88;101156.91;5037543;27;97889;-72
2021/07/15 06:52:05;;;;;;;4.10;2.58;;;20.00;91.30;;;23.26;77.46;101164.00;5043913;27;96914;-72
2021/07/15 06:54:35;;;;;;;2.17;0.88;;;20.00;91.20;;;23.32;76.97;101173.41;5043320;27;97119;-73
2021/07/15 06:57:07;;;;;;;2.45;1.83;;;20.10;91.20;;;23.39;77.09;101177.03;5038955;27;97364;-72
2021/07/15 06:59:38;;;;;;;1.67;1.05;;;20.20;91.20;;;23.47;76.93;101172.41;5041094;27;96770;-72
2021/07/15 07:02:08;;;;;;;5.10;2.13;;;20.20;91.10;;;23.46;77.14;101177.06;5042148;27;96918;-72
2021/07/15 07:04:37;;;;;;;2.63;1.08;;;20.30;91.10;;;23.50;76.80;101179.84;5038605;27;96737;-72
2021/07/15 07:07:07;;;;;;;0.95;0.90;;;20.30;91.10;;;23.54;76.97;101180.66;5024014;27;97941;-72
2021/07/15 07:09:35;;;;;;;1.92;1.60;;;20.30;91.50;;;23.45;77.06;101193.88;5037622;27;97702;-72
2021/07/15 07:12:05;;;;;;;2.90;1.08;;;20.30;91.30;;;23.48;77.00;101191.16;5032837;27;97295;-71
2021/07/15 07:14:34;;;;;;;0.93;0.85;;;20.30;91.30;;;23.45;77.07;101200.13;5040591;27;97015;-72
2021/07/15 07:17:05;;;;;;;5.30;1.77;;;20.30;91.30;;;23.48;77.28;101199.38;5042899;27;100984;-72
2021/07/15 07:19:34;;;;;;;4.93;1.83;;;20.30;91.40;;;23.44;77.22;101198.56;5038473;27;97184;-72
2021/07/15 07:22:06;;;;;;;7.25;2.13;;;20.30;91.40;;;23.42;77.66;101206.34;5038196;27;97059;-72
2021/07/15 07:24:35;;;;;;;0.70;0.70;;;20.30;91.40;;;23.45;77.42;101207.56;5038395;27;97004;-71
2021/07/15 07:27:05;;;;;;;3.47;2.40;;;20.30;91.50;;;23.39;77.77;101206.31;5035963;27;96892;-72
2021/07/15 07:29:34;;;;;;;1.20;1.10;;;20.30;91.50;;;23.33;77.75;101213.28;5040254;27;97734;-71
2021/07/15 07:32:07;;;;;;;1.60;1.50;;;20.30;91.60;;;23.26;78.28;101219.47;5047894;27;97377;-72
2021/07/15 07:34:36;;;;;;;4.95;1.92;;;20.20;91.90;;;23.27;77.99;101217.53;5038564;27;101231;-71
2021/07/15 07:37:05;;;;;;;1.27;1.17;;;20.20;91.70;;;23.27;77.61;101226.53;5038442;27;97955;-71
2021/07/15 07:39:34;;;;;;;7.13;2.30;;;20.10;91.70;;;23.29;78.01;101228.88;5040793;27;97084;-71
2021/07/15 07:42:05;;;;;;;1.75;1.42;;;20.10;91.70;;;23.34;77.96;101220.31;5039849;27;96740;-71
2021/07/15 07:44:34;;;;;;;1.10;1.02;;;20.10;91.80;;;23.28;77.97;101232.78;5040617;27;97197;-71
2021/07/15 07:47:07;;;;;;;14.80;1.98;;;20.10;91.80;;;23.23;78.54;101228.41;5037667;27;97859;-71
2021/07/15 07:49:36;;;;;;;8.00;2.67;;;20.10;91.80;;;23.26;78.29;101230.41;5038723;27;98139;-71
2021/07/15 07:52:05;;;;;;;3.10;1.73;;;20.10;91.90;;;23.38;77.98;101243.03;5036347;27;96798;-71
2021/07/15 07:54:34;;;;;;;1.67;1.02;;;20.10;91.90;;;23.39;77.87;101239.13;5038358;27;96993;-71
2021/07/15 07:57:05;;;;;;;3.45;1.63;;;20.10;92.20;;;23.33;78.08;101240.63;5038186;27;97113;-72
2021/07/15 07:59:34;;;;;;;2.17;0.90;;;20.10;91.90;;;23.26;78.02;101244.06;5023423;27;96883;-72
2021/07/15 08:02:04;;;;;;;5.70;1.98;;;20.10;92.00;;;23.15;78.29;101242.41;5037229;27;97546;-72
2021/07/15 08:04:35;;;;;;;2.72;1.40;;;20.10;92.00;;;23.23;78.60;101236.63;5025278;27;97075;-72
2021/07/15 08:07:08;;;;;;;2.10;1.92;;;20.10;92.10;;;23.34;78.22;101240.28;5038892;27;97980;-72
2021/07/15 08:09:43;;;;;;;6.20;2.28;;;20.10;92.10;;;23.45;77.90;101241.16;5041392;27;96802;-72
2021/07/15 08:12:16;;;;;;;3.00;1.23;;;20.10;92.00;;;23.51;77.94;101250.59;5032370;27;97201;-72
2021/07/15 08:14:47;;;;;;;0.80;0.75;;;20.20;92.00;;;23.70;77.49;101249.59;5040015;27;96930;-72
2021/07/15 08:17:16;;;;;;;6.80;1.42;;;20.30;92.00;;;23.79;76.99;101250.88;5037489;27;98033;-72
2021/07/15 08:19:47;;;;;;;1.95;1.50;;;20.30;91.90;;;24.01;76.70;101249.91;5031232;27;96920;-72
2021/07/15 08:22:15;;;;;;;2.45;1.25;;;20.50;91.80;;;24.18;76.58;101254.75;5044604;27;96878;-73
2021/07/15 08:24:44;;;;;;;2.30;1.70;;;20.50;91.60;;;24.23;75.93;101259.88;5031282;27;97018;-71
2021/07/15 08:27:13;;;;;;;4.75;1.25;;;20.60;91.60;;;24.12;76.36;101267.22;5037619;27;97903;-72
2021/07/15 08:29:42;;;;;;;2.58;2.33;;;20.70;91.70;;;23.93;77.02;101275.66;5048788;27;98019;-72
2021/07/15 08:32:11;;;;;;;2.10;1.42;;;20.60;91.80;;;23.81;77.53;101273.19;5037972;27;96783;-72
2021/07/15 08:34:40;;;;;;;4.05;2.45;;;20.50;91.90;;;23.74;78.06;101277.81;5039192;27;97030;-72
2021/07/15 08:37:10;;;;;;;4.60;2.22;;;20.50;91.90;;;23.62;78.42;101278.06;5036567;27;97529;-72
2021/07/15 08:39:39;;;;;;;1.90;1.75;;;20.50;92.00;;;23.59;78.11;101276.88;5036996;27;97889;-72
2021/07/15 08:42:10;;;;;;;2.80;1.98;;;20.40;92.10;;;23.55;78.62;101280.72;5038596;27;96968;-73
2021/07/15 08:44:40;;;;;;;2.50;1.52;;;20.40;92.20;;;23.55;78.53;101286.22;5038297;27;97040;-72
2021/07/15 08:47:11;;;;;;;4.13;1.38;;;20.40;92.20;;;23.58;78.39;101279.97;5037652;27;96856;-72
2021/07/15 08:49:41;;;;;;;6.78;2.42;;;20.40;92.20;;;23.66;78.30;101281.63;5039454;27;97673;-72
2021/07/15 08:52:15;;;;;;;1.17;1.10;;;20.40;92.20;;;23.67;78.48;101284.00;5053458;27;96963;-72
2021/07/15 08:54:55;;;;;;;0.65;0.55;;;20.40;92.20;;;23.70;78.11;101282.44;5034655;27;97096;-72
2021/07/15 08:57:23;;;;;;;1.27;1.15;;;20.40;92.20;;;23.64;78.17;101284.75;5037126;27;97368;-72
2021/07/15 08:59:52;;;;;;;3.10;1.55;;;20.40;92.30;;;23.75;78.26;101282.13;5038301;27;96793;-72
2021/07/15 09:02:23;;;;;;;1.30;0.88;;;20.40;92.30;;;24.06;77.42;101291.44;5035642;27;97740;-72
2021/07/15 09:04:55;;;;;;;1.45;1.33;;;20.50;92.20;;;24.10;77.54;101292.25;5041933;27;96786;-73
2021/07/15 09:07:25;;;;;;;0.65;0.65;;;20.60;92.10;;;24.12;77.15;101289.91;5019968;27;98882;-72
2021/07/15 09:09:56;;;;;;;3.95;1.27;;;20.60;92.10;;;24.20;77.44;101301.72;5022384;27;98108;-72
2021/07/15 09:12:27;;;;;;;4.07;0.70;;;20.70;92.10;;;24.17;77.28;101294.25;5035248;27;97067;-73
2021/07/15 09:14:57;;;;;;;1.10;1.02;;;20.70;92.10;;;24.12;77.44;101292.66;5024643;27;97361;-72
2021/07/15 09:17:31;;;;;;;7.53;1.65;;;20.70;92.10;;;24.34;76.69;101297.13;5039622;27;97795;-72
2021/07/15 09:20:01;;;;;;;1.17;0.93;;;20.80;92.00;;;24.66;76.25;101295.44;5036255;27;96755;-71
2021/07/15 09:22:35;;;;;;;2.78;0.98;;;20.90;91.80;;;24.91;75.25;101292.81;5043972;27;96652;-72
2021/07/15 09:25:07;;;;;;;1.38;1.27;;;21.10;91.70;;;25.07;74.90;101302.28;5039023;27;97455;-72
2021/07/15 09:27:36;;;;;;;0.55;0.55;;;21.20;91.50;;;25.03;75.07;101301.50;5044351;27;96826;-72
2021/07/15 09:30:12;;;;;;;2.53;0.75;;;21.30;91.50;;;24.93;75.85;101302.25;5041085;27;96740;-72
2021/07/15 09:32:54;;;;;;;5.50;0.80;;;21.40;91.50;;;24.74;76.23;101310.75;5039319;27;96766;-72
2021/07/15 09:35:31;;;;;;;2.13;2.00;;;21.30;91.50;;;24.52;77.00;101317.25;5044586;27;97481;-72
2021/07/15 09:38:13;;;;;;;1.55;0.95;;;21.20;91.60;;;24.61;76.95;101323.16;5042463;27;97599;-72
2021/07/15 09:40:45;;;;;;;0.73;0.43;;;21.20;91.70;;;24.55;77.17;101327.44;5041388;27;97195;-71
2021/07/15 09:43:21;;;;;;;0.55;0.52;;;21.20;91.80;;;24.81;76.49;101319.00;5028480;27;97220;-71
2021/07/15 09:45:54;;;;;;;1.65;0.57;;;21.30;91.70;;;24.85;76.08;101314.31;5044488;27;97437;-71
2021/07/15 09:48:25;;;;;;;;;;;21.30;91.60;;;24.78;76.69;101311.53;5044015;27;96891;-72
2021/07/15 09:50:58;;;;;;;0.47;0.32;;;21.30;91.70;;;24.92;76.27;101319.88;5039046;27;97109;-72
2021/07/15 09:53:30;;;;;;;0.10;0.10;;;21.40;91.70;;;25.08;76.24;101322.28;5045758;27;96881;-71
2021/07/15 09:56:03;;;;;;;1.17;0.82;;;21.40;91.60;;;25.11;75.73;101319.56;5050785;27;96991;-71
2021/07/15 09:58:34;;;;;;;0.55;0.55;;;21.50;91.50;;;25.01;75.70;101324.97;5042433;27;96975;-71
2021/07/15 10:01:08;;;;;;;0.00;0.00;;;21.50;91.50;;;24.56;77.42;101333.72;5048963;27;96908;-71
2021/07/15 10:03:40;;;;;;;0.35;0.35;;;21.40;91.60;;;24.44;77.45;101334.78;5045517;27;96931;-71
2021/07/15 10:06:12;;;;;;;0.45;0.45;;;21.30;91.80;;;24.35;77.67;101331.59;5042571;27;97268;-71
2021/07/15 10:08:46;;;;;;;2.55;0.60;;;21.20;92.00;;;24.27;78.03;101329.94;5043289;27;97198;-71
2021/07/15 10:11:23;;;;;;;0.15;0.15;;;21.10;92.00;;;24.26;77.42;101339.31;5039500;27;98084;-70
2021/07/15 10:14:03;;;;;;;0.22;0.22;;;21.00;92.10;;;24.09;78.55;101344.63;5041864;27;96946;-71
2021/07/15 10:16:35;;;;;;;0.17;0.17;;;20.90;92.20;;;24.07;77.88;101345.03;5045994;27;96869;-71
2021/07/15 10:19:10;;;;;;;0.75;0.40;;;20.80;92.20;;;24.24;77.81;101344.38;5022535;27;97117;-72
2021/07/15 10:21:39;;;;;;;1.13;1.02;;;20.90;92.30;;;24.36;77.15;101346.84;5041207;27;97727;-71
2021/07/15 10:24:22;;;;;;;0.20;0.20;;;20.90;92.20;;;24.23;77.93;101342.81;5045486;27;96903;-71
2021/07/15 10:26:54;;;;;;;0.35;0.35;;;20.90;92.20;;;24.19;78.19;101344.75;5025475;27;100844;-71
2021/07/15 10:29:26;;;;;;;;;;;20.90;92.20;;;24.03;78.04;101348.91;5040176;27;97297;-72
2021/07/15 10:31:55;;;;;;;2.00;1.75;;;20.80;92.20;;;23.96;78.05;101348.84;5040420;27;97620;-71
2021/07/15 10:34:26;;;;;;;1.88;0.45;;;20.70;92.30;;;23.90;78.46;101352.28;5025516;27;97099;-71